createdAt,value
2023-01-22T00:03:55.053Z,100234.91
2023-01-22T00:08:07.429Z,100242.84
2023-01-22T00:12:19.753Z,100249.91
2023-01-22T00:16:32.135Z,100246.31
2023-01-22T00:20:48.731Z,100240.19
2023-01-22T00:25:01.015Z,100235.78
2023-01-22T00:29:13.548Z,100236.66
2023-01-22T00:33:26.038Z,100254.00
2023-01-22T00:37:38.549Z,100258.56
2023-01-22T00:41:51.057Z,100264.75
2023-01-22T00:46:03.450Z,100272.66
2023-01-22T00:50:16.113Z,100276.19
2023-01-22T00:54:30.141Z,100271.72
2023-01-22T00:58:42.907Z,100270.75
2023-01-22T01:03:14.546Z,100275.94
2023-01-22T01:07:27.415Z,100269.75
2023-01-22T01:11:41.681Z,100278.53
2023-01-22T01:16:06.313Z,100283.75
2023-01-22T01:20:18.941Z,100279.44
2023-01-22T01:24:32.534Z,100274.97
2023-01-22T01:28:46.043Z,100280.09
2023-01-22T01:33:01.579Z,100271.44
2023-01-22T01:37:13.942Z,100274.97
2023-01-22T01:41:27.534Z,100266.22
2023-01-22T01:45:40.083Z,100270.56
2023-01-22T01:49:54.113Z,100261.69
2023-01-22T01:54:08.231Z,100255.53
2023-01-22T01:58:24.114Z,100252.06
2023-01-22T02:02:38.069Z,100252.09
2023-01-22T02:06:50.432Z,100252.09
2023-01-22T02:11:02.849Z,100251.16
2023-01-22T02:15:15.329Z,100256.47
2023-01-22T02:19:36.796Z,100251.19
2023-01-22T02:23:49.709Z,100252.91
2023-01-22T02:28:02.175Z,100253.72
2023-01-22T02:32:14.750Z,100248.56
2023-01-22T02:36:27.985Z,100252.78
2023-01-22T02:40:49.547Z,100260.56
2023-01-22T02:45:05.275Z,100256.44
2023-01-22T02:49:18.916Z,100257.31
2023-01-22T02:53:33.831Z,100258.38
2023-01-22T02:57:49.202Z,100261.91
2023-01-22T03:02:02.196Z,100260.91
2023-01-22T03:06:16.183Z,100258.22
2023-01-22T03:10:28.537Z,100252.97
2023-01-22T03:14:59.951Z,100258.13
2023-01-22T03:19:32.573Z,100255.66
2023-01-22T03:23:47.427Z,100251.28
2023-01-22T03:28:16.814Z,100254.63
2023-01-22T03:32:35.014Z,100243.31
2023-01-22T03:36:48.719Z,100233.66
2023-01-22T03:41:21.568Z,100234.53
2023-01-22T03:45:35.828Z,100222.25
2023-01-22T03:49:50.106Z,100228.41
2023-01-22T03:54:03.047Z,100220.47
2023-01-22T03:58:15.508Z,100238.88
2023-01-22T04:02:31.503Z,100238.81
2023-01-22T04:06:56.932Z,100247.78
2023-01-22T04:11:09.844Z,100255.66
2023-01-22T04:15:22.866Z,100258.34
2023-01-22T04:19:36.723Z,100267.97
2023-01-22T04:23:49.021Z,100285.69
2023-01-22T04:28:02.164Z,100289.22
2023-01-22T04:32:19.811Z,100292.88
2023-01-22T04:36:38.622Z,100314.00
2023-01-22T04:40:51.842Z,100303.44
2023-01-22T04:45:04.843Z,100308.69
2023-01-22T04:49:17.823Z,100315.66
2023-01-22T04:53:32.180Z,100336.78
2023-01-22T04:57:46.637Z,100350.81
2023-01-22T05:01:59.766Z,100366.72
2023-01-22T05:06:14.531Z,100376.50
2023-01-22T05:10:30.580Z,100375.69
2023-01-22T05:14:43.306Z,100371.31
2023-01-22T05:18:56.593Z,100351.16
2023-01-22T05:23:13.880Z,100332.69
2023-01-22T05:27:30.179Z,100326.50
2023-01-22T05:31:56.319Z,100335.22
2023-01-22T05:36:18.168Z,100321.97
2023-01-22T05:40:30.796Z,100322.78
2023-01-22T05:44:43.568Z,100315.72
2023-01-22T05:48:58.404Z,100308.53
2023-01-22T05:53:12.377Z,100317.53
2023-01-22T05:57:24.685Z,100313.00
2023-01-22T06:01:37.067Z,100316.41
2023-01-22T06:05:59.965Z,100323.25
2023-01-22T06:10:12.613Z,100324.88
2023-01-22T06:14:30.650Z,100323.34
2023-01-22T06:18:44.952Z,100328.47
2023-01-22T06:22:59.824Z,100332.19
2023-01-22T06:27:15.451Z,100340.16
2023-01-22T06:31:41.257Z,100340.19
2023-01-22T06:35:56.744Z,100347.25
2023-01-22T06:40:11.805Z,100350.81
2023-01-22T06:44:30.441Z,100356.06
2023-01-22T06:48:44.812Z,100353.47
2023-01-22T06:52:57.349Z,100367.53
2023-01-22T06:57:09.755Z,100367.56
2023-01-22T07:01:24.270Z,100376.41
2023-01-22T07:05:36.687Z,100381.00
2023-01-22T07:09:49.138Z,100386.41
2023-01-22T07:14:01.450Z,100387.31
2023-01-22T07:18:14.941Z,100400.53
2023-01-22T07:22:27.477Z,100397.84
2023-01-22T07:26:41.229Z,100404.88
2023-01-22T07:30:53.677Z,100403.97
2023-01-22T07:35:06.359Z,100416.25
2023-01-22T07:39:19.909Z,100420.59
2023-01-22T07:43:32.859Z,100433.78
2023-01-22T07:48:07.962Z,100432.88
2023-01-22T07:52:20.245Z,100430.94
2023-01-22T07:56:32.554Z,100436.13
2023-01-22T08:00:45.010Z,100447.59
2023-01-22T08:04:57.460Z,100451.84
2023-01-22T08:09:09.801Z,100454.09
2023-01-22T08:13:25.418Z,100459.97
2023-01-22T08:17:39.036Z,100463.44
2023-01-22T08:21:52.594Z,100470.03
2023-01-22T08:26:06.181Z,100477.88
2023-01-22T08:30:19.162Z,100480.34
2023-01-22T08:34:33.310Z,100478.56
2023-01-22T08:38:45.842Z,100482.34
2023-01-22T08:42:58.309Z,100490.66
2023-01-22T08:47:11.823Z,100502.16
2023-01-22T08:51:25.357Z,100502.78
2023-01-22T08:55:38.106Z,100501.34
2023-01-22T09:00:00.785Z,100500.94
2023-01-22T09:04:13.824Z,100504.97
2023-01-22T09:08:26.357Z,100495.50
2023-01-22T09:12:40.091Z,100492.41
2023-01-22T09:16:59.013Z,100498.56
2023-01-22T09:21:12.091Z,100492.47
2023-01-22T09:25:27.404Z,100479.44
2023-01-22T09:29:41.691Z,100482.53
2023-01-22T09:33:55.883Z,100484.56
2023-01-22T09:38:12.863Z,100471.41
2023-01-22T09:42:32.433Z,100460.03
2023-01-22T09:46:59.433Z,100447.72
2023-01-22T09:51:16.961Z,100450.13
2023-01-22T09:55:32.609Z,100441.28
2023-01-22T09:59:51.334Z,100435.00
2023-01-22T10:04:08.112Z,100424.25
2023-01-22T10:08:23.959Z,100413.19
2023-01-22T10:12:36.411Z,100410.81
2023-01-22T10:16:49.429Z,100407.50
2023-01-22T10:21:07.319Z,100403.78
2023-01-22T10:25:19.727Z,100387.44
2023-01-22T10:29:34.700Z,100394.31
2023-01-22T10:33:47.222Z,100386.88
2023-01-22T10:38:01.246Z,100375.19
2023-01-22T10:42:18.850Z,100368.53
2023-01-22T10:46:31.402Z,100364.31
2023-01-22T10:50:45.423Z,100369.63
2023-01-22T10:55:01.051Z,100360.59
2023-01-22T10:59:23.334Z,100361.25
2023-01-22T11:03:40.019Z,100354.06
2023-01-22T11:08:06.252Z,100346.50
2023-01-22T11:12:30.331Z,100348.34
2023-01-22T11:16:45.944Z,100344.13
2023-01-22T11:21:01.001Z,100342.66
2023-01-22T11:25:13.594Z,100339.56
2023-01-22T11:30:06.312Z,100341.25
2023-01-22T11:34:33.718Z,100348.78
2023-01-22T11:39:38.718Z,100343.16
2023-01-22T11:44:15.320Z,100344.66
2023-01-22T11:48:45.228Z,100342.53
2023-01-22T11:53:26.814Z,100341.31
2023-01-22T11:57:46.755Z,100328.00
2023-01-22T12:02:02.985Z,100326.56
2023-01-22T12:06:46.441Z,100321.53
2023-01-22T12:11:37.441Z,100319.34
2023-01-22T12:15:58.982Z,100326.16
2023-01-22T12:20:34.391Z,100321.56
2023-01-22T12:25:10.826Z,100331.50
2023-01-22T12:29:29.902Z,100320.44
2023-01-22T12:33:44.505Z,100333.00
2023-01-22T12:38:19.497Z,100325.63
2023-01-22T12:42:41.020Z,100330.53
2023-01-22T12:47:09.798Z,100338.41
2023-01-22T12:51:47.347Z,100327.47
2023-01-22T12:56:02.836Z,100329.00
2023-01-22T13:00:35.654Z,100329.88
2023-01-22T13:04:48.166Z,100326.41
2023-01-22T13:09:01.001Z,100316.94
2023-01-22T13:13:13.282Z,100317.34
2023-01-22T13:17:30.756Z,100318.88
2023-01-22T13:21:44.102Z,100315.44
2023-01-22T13:25:57.899Z,100318.69
2023-01-22T13:30:23.708Z,100306.97
2023-01-22T13:34:36.171Z,100305.28
2023-01-22T13:38:53.802Z,100302.16
2023-01-22T13:43:07.823Z,100291.84
2023-01-22T13:47:35.118Z,100304.03
2023-01-22T13:51:50.698Z,100301.59
2023-01-22T13:56:03.309Z,100298.00
2023-01-22T14:00:30.809Z,100299.44
2023-01-22T14:04:43.175Z,100307.44
2023-01-22T14:08:57.823Z,100303.44
2023-01-22T14:13:12.543Z,100298.38
2023-01-22T14:17:30.685Z,100289.09
2023-01-22T14:21:43.295Z,100302.19
2023-01-22T14:25:56.957Z,100303.78
2023-01-22T14:30:11.178Z,100312.53
2023-01-22T14:34:23.568Z,100300.00
2023-01-22T14:38:35.977Z,100283.78
2023-01-22T14:42:48.771Z,100284.41
2023-01-22T14:47:01.217Z,100269.06
2023-01-22T14:51:13.825Z,100257.81
2023-01-22T14:55:26.348Z,100263.28
2023-01-22T14:59:38.676Z,100276.00
2023-01-22T15:03:51.201Z,100273.25
2023-01-22T15:08:03.957Z,100289.50
2023-01-22T15:12:16.308Z,100284.91
2023-01-22T15:16:29.054Z,100285.56
2023-01-22T15:20:41.483Z,100284.03
2023-01-22T15:24:53.974Z,100293.38
2023-01-22T15:29:09.442Z,100302.28
2023-01-22T15:33:21.855Z,100302.91
2023-01-22T15:37:34.412Z,100300.19
2023-01-22T15:41:47.472Z,100296.78
2023-01-22T15:46:00.017Z,100288.16
2023-01-22T15:50:14.349Z,100295.38
2023-01-22T15:54:27.284Z,100301.75
2023-01-22T15:58:39.721Z,100305.34
2023-01-22T16:02:52.099Z,100305.38
2023-01-22T16:07:04.684Z,100300.00
2023-01-22T16:11:17.678Z,100286.56
2023-01-22T16:15:29.999Z,100294.47
2023-01-22T16:19:42.815Z,100297.31
2023-01-22T16:23:57.701Z,100283.25
2023-01-22T16:28:10.313Z,100262.66
2023-01-22T16:32:23.794Z,100258.19
2023-01-22T16:36:37.035Z,100263.59
2023-01-22T16:40:50.402Z,100253.72
2023-01-22T16:45:03.165Z,100252.22
2023-01-22T16:49:21.670Z,100270.94
2023-01-22T16:53:35.771Z,100273.53
2023-01-22T16:57:51.419Z,100268.91
2023-01-22T17:02:07.888Z,100268.00
2023-01-22T17:06:44.714Z,100259.22
2023-01-22T17:10:57.226Z,100237.94
2023-01-22T17:15:10.158Z,100230.34
2023-01-22T17:19:23.231Z,100231.00
2023-01-22T17:23:35.603Z,100231.06
2023-01-22T17:27:47.913Z,100235.66
2023-01-22T17:32:00.517Z,100222.41
2023-01-22T17:36:15.289Z,100231.13
2023-01-22T17:40:27.885Z,100194.81
2023-01-22T17:44:46.412Z,100200.44
2023-01-22T17:49:01.319Z,100194.31
2023-01-22T17:53:13.719Z,100199.50
2023-01-22T17:57:26.205Z,100201.22
2023-01-22T18:01:39.615Z,100217.09
2023-01-22T18:05:54.895Z,100224.00
2023-01-22T18:10:07.442Z,100215.41
2023-01-22T18:14:23.079Z,100223.44
2023-01-22T18:18:35.852Z,100232.25
2023-01-22T18:22:49.296Z,100233.03
2023-01-22T18:27:02.528Z,100226.72
2023-01-22T18:31:17.041Z,100233.84
2023-01-22T18:35:29.857Z,100240.19
2023-01-22T18:39:42.424Z,100231.31
2023-01-22T18:43:57.287Z,100230.28
2023-01-22T18:48:13.085Z,100230.25
2023-01-22T18:52:27.507Z,100216.13
2023-01-22T18:56:40.271Z,100212.66
2023-01-22T19:00:52.675Z,100213.78
2023-01-22T19:05:07.736Z,100221.72
2023-01-22T19:09:21.130Z,100207.47
2023-01-22T19:13:39.788Z,100194.19
2023-01-22T19:17:52.179Z,100201.25
2023-01-22T19:22:04.668Z,100173.94
2023-01-22T19:26:28.930Z,100161.53
2023-01-22T19:30:41.378Z,100169.69
2023-01-22T19:34:57.915Z,100161.78
2023-01-22T19:39:13.264Z,100166.03
2023-01-22T19:43:26.487Z,100158.03
2023-01-22T19:47:39.184Z,100149.34
2023-01-22T19:51:51.581Z,100155.31
2023-01-22T19:56:05.823Z,100147.34
2023-01-22T20:00:20.085Z,100146.66
2023-01-22T20:04:36.184Z,100132.94
2023-01-22T20:08:53.602Z,100125.19
2023-01-22T20:13:09.890Z,100122.50
2023-01-22T20:17:22.346Z,100134.66
2023-01-22T20:21:35.714Z,100128.06
2023-01-22T20:25:49.005Z,100142.44
2023-01-22T20:30:02.616Z,100131.81
2023-01-22T20:34:15.138Z,100146.22
2023-01-22T20:38:29.070Z,100139.75
2023-01-22T20:42:41.492Z,100139.34
2023-01-22T20:46:54.481Z,100151.69
2023-01-22T20:51:15.337Z,100164.94
2023-01-22T20:55:28.408Z,100175.97
2023-01-22T20:59:40.786Z,100172.91
2023-01-22T21:03:54.084Z,100170.25
2023-01-22T21:08:07.119Z,100175.72
2023-01-22T21:12:19.911Z,100169.38
2023-01-22T21:16:36.266Z,100162.41
2023-01-22T21:20:49.234Z,100165.78
2023-01-22T21:25:02.132Z,100174.16
2023-01-22T21:29:17.420Z,100171.19
2023-01-22T21:33:29.891Z,100169.84
2023-01-22T21:37:42.428Z,100167.53
2023-01-22T21:42:14.308Z,100183.84
2023-01-22T21:46:28.385Z,100182.03
2023-01-22T21:50:42.358Z,100177.22
2023-01-22T21:54:54.824Z,100180.75
2023-01-22T21:59:07.290Z,100174.13
2023-01-22T22:03:19.679Z,100174.28
2023-01-22T22:07:32.142Z,100166.56
2023-01-22T22:11:45.473Z,100182.91
2023-01-22T22:16:05.424Z,100151.50
2023-01-22T22:20:18.104Z,100150.63
2023-01-22T22:24:30.742Z,100156.13
2023-01-22T22:28:43.260Z,100163.00
2023-01-22T22:32:55.770Z,100148.16
2023-01-22T22:37:08.206Z,100145.28
2023-01-22T22:41:26.407Z,100142.69
2023-01-22T22:45:39.164Z,100146.94
2023-01-22T22:49:51.573Z,100140.09
2023-01-22T22:54:12.838Z,100141.75
2023-01-22T22:58:25.185Z,100149.41
2023-01-22T23:02:37.811Z,100142.06
2023-01-22T23:06:50.245Z,100150.03
2023-01-22T23:11:04.761Z,100147.94
2023-01-22T23:15:17.198Z,100173.97
2023-01-22T23:19:29.620Z,100190.22
2023-01-22T23:23:42.943Z,100202.19
2023-01-22T23:27:56.063Z,100199.31
2023-01-22T23:32:08.456Z,100178.06
2023-01-22T23:36:21.430Z,100186.94
2023-01-22T23:40:37.153Z,100181.22
2023-01-22T23:44:51.809Z,100184.94
2023-01-22T23:49:05.494Z,100185.09
2023-01-22T23:53:18.181Z,100176.50
2023-01-22T23:57:30.636Z,100175.00
